Time;durP1;ratioP1;P1;durP2;ratioP2;P2;SDS_P1;SDS_P2;PMS_P1;PMS_P2;Temp;Humidity;BMP_temperature;BMP_pressure;BME280_temperature;BME280_humidity;BME280_pressure;Samples;Min_cycle;Max_cycle;Signal;HPM_P1;HPM_P2
2022/08/22 00:02:12;;;;;;;11.25;6.20;;;;;;;20.07;51.09;99749.81;4983927;28;20125;-87
2022/08/22 00:04:46;;;;;;;12.43;6.20;;;;;;;20.08;51.08;99749.63;4996734;28;20045;-82
2022/08/22 00:07:38;;;;;;;12.05;7.10;;;;;;;19.86;51.25;99748.88;4970121;28;20046;-82
2022/08/22 00:10:15;;;;;;;9.67;6.23;;;;;;;20.11;50.37;99738.44;4949259;28;20046;-82
2022/08/22 00:13:14;;;;;;;12.77;5.55;;;;;;;19.90;51.56;99746.63;4991050;28;20453;-82
2022/08/22 00:15:59;;;;;;;15.15;6.45;;;;;;;20.00;51.37;99743.53;4997231;28;20124;-82
2022/08/22 00:18:48;;;;;;;11.98;6.35;;;;;;;19.80;51.17;99743.44;4967577;28;20058;-88
2022/08/22 00:21:29;;;;;;;11.60;6.85;;;;;;;19.86;51.58;99742.66;4996562;28;20512;-89
2022/08/22 00:24:17;;;;;;;13.48;5.78;;;;;;;19.77;51.91;99747.38;4980545;28;20068;-88
2022/08/22 00:26:48;;;;;;;10.27;6.05;;;;;;;19.98;51.14;99743.75;4988920;28;20054;-82
2022/08/22 00:29:19;;;;;;;12.27;6.30;;;;;;;19.87;51.49;99747.00;4971205;28;20042;-82
2022/08/22 00:31:50;;;;;;;13.07;6.45;;;;;;;19.82;51.74;99742.22;4994252;28;20129;-83
2022/08/22 00:34:21;;;;;;;12.30;6.13;;;;;;;19.69;51.92;99744.81;4980516;28;20648;-85
2022/08/22 00:37:06;;;;;;;10.90;6.47;;;;;;;19.47;52.89;99738.63;4995181;28;20053;-84
2022/08/22 00:39:46;;;;;;;11.25;6.20;;;;;;;19.51;52.93;99745.28;4943869;28;20427;-82
2022/08/22 00:42:22;;;;;;;11.57;6.38;;;;;;;19.55;52.53;99746.56;4970764;28;20097;-82
2022/08/22 00:45:16;;;;;;;8.25;5.78;;;;;;;19.73;51.87;99746.91;4984509;28;20061;-82
2022/08/22 00:47:57;;;;;;;10.40;5.95;;;;;;;19.51;53.00;99746.13;4943977;28;20046;-83
2022/08/22 00:50:48;;;;;;;10.60;5.47;;;;;;;19.41;53.48;99750.16;4911988;28;20582;-83
2022/08/22 00:53:48;;;;;;;10.15;5.78;;;;;;;19.42;53.51;99751.84;4956949;28;20043;-91
2022/08/22 00:56:20;;;;;;;9.40;5.95;;;;;;;19.52;53.20;99745.09;4906949;28;20045;-90
2022/08/22 00:59:24;;;;;;;10.88;6.07;;;;;;;19.26;53.61;99742.22;4951717;28;20134;-91
2022/08/22 01:02:16;;;;;;;10.68;5.82;;;;;;;19.35;53.51;99742.88;4853854;28;20406;-82
2022/08/22 01:05:06;;;;;;;9.85;6.00;;;;;;;19.39;53.14;99745.00;4944119;28;20049;-88
2022/08/22 01:07:40;;;;;;;13.02;5.88;;;;;;;19.34;53.14;99743.94;4967824;28;20048;-89
2022/08/22 01:10:29;;;;;;;9.10;5.07;;;;;;;19.13;53.88;99740.19;5007753;28;20050;-89
2022/08/22 01:13:20;;;;;;;11.07;5.97;;;;;;;19.30;53.77;99738.91;4968776;28;20061;-89
2022/08/22 01:15:49;;;;;;;9.23;5.57;;;;;;;19.37;53.32;99743.53;4947885;28;20046;-89
2022/08/22 01:18:46;;;;;;;10.32;5.88;;;;;;;19.32;53.25;99738.72;4992227;28;20050;-90
2022/08/22 01:21:21;;;;;;;9.25;6.20;;;;;;;19.25;53.37;99740.53;4908088;28;20041;-88
2022/08/22 01:24:19;;;;;;;10.00;5.85;;;;;;;19.27;53.44;99741.16;4970783;28;20045;-90
2022/08/22 01:27:19;;;;;;;10.10;5.97;;;;;;;18.92;54.11;99732.97;4941926;28;20061;-90
2022/08/22 01:30:04;;;;;;;12.98;5.75;;;;;;;18.91;54.44;99738.56;4960879;28;20042;-90
2022/08/22 01:32:41;;;;;;;14.30;5.80;;;;;;;19.08;54.22;99740.81;4933573;28;20042;-91
2022/08/22 01:35:23;;;;;;;11.13;5.57;;;;;;;19.23;53.68;99735.34;4992265;28;20046;-91
2022/08/22 01:38:27;;;;;;;10.23;5.78;;;;;;;19.14;52.95;99738.38;5007920;28;20045;-83
2022/08/22 01:41:17;;;;;;;9.70;5.50;;;;;;;19.06;53.34;99742.84;4905015;28;20038;-83
2022/08/22 01:44:02;;;;;;;9.13;6.43;;;;;;;19.19;53.65;99742.13;4927352;28;20149;-83
2022/08/22 01:46:36;;;;;;;8.35;6.25;;;;;;;19.23;53.62;99734.50;4926227;28;20042;-83
2022/08/22 01:49:11;;;;;;;7.53;5.50;;;;;;;19.06;54.01;99737.47;4935933;28;20055;-83
2022/08/22 01:51:55;;;;;;;11.07;6.05;;;;;;;19.00;53.81;99737.41;4921033;28;20098;-83
2022/08/22 01:54:53;;;;;;;8.68;5.70;;;;;;;18.85;54.60;99740.16;4941205;28;20071;-83
2022/08/22 01:57:21;;;;;;;13.60;6.43;;;;;;;19.11;54.06;99744.13;4903379;28;20046;-89
2022/08/22 01:59:51;;;;;;;12.35;5.60;;;;;;;19.06;54.53;99733.94;4948314;28;20110;-85
2022/08/22 02:02:41;;;;;;;9.48;5.43;;;;;;;18.92;54.57;99735.66;4964427;28;20683;-82
2022/08/22 02:05:19;;;;;;;8.73;5.50;;;;;;;18.90;54.42;99737.72;4926747;28;20149;-82
2022/08/22 02:07:52;;;;;;;9.85;5.47;;;;;;;18.90;54.07;99743.09;4964582;28;20050;-82
2022/08/22 02:10:53;;;;;;;8.48;5.60;;;;;;;18.68;54.78;99736.84;4884276;28;20051;-83
2022/08/22 02:13:33;;;;;;;11.02;5.80;;;;;;;18.70;54.85;99736.66;4899628;28;20047;-84
2022/08/22 02:16:15;;;;;;;9.88;5.68;;;;;;;18.72;54.70;99740.81;4931686;28;21109;-83
2022/08/22 02:19:22;;;;;;;10.18;6.03;;;;;;;18.59;55.68;99732.59;4956520;28;20049;-83
2022/08/22 02:22:19;;;;;;;9.60;5.38;;;;;;;18.42;55.44;99740.09;4960007;28;20042;-89
2022/08/22 02:24:46;;;;;;;10.75;5.90;;;;;;;18.86;54.34;99744.53;4950936;28;20038;-82
2022/08/22 02:27:45;;;;;;;11.43;6.07;;;;;;;18.66;55.14;99734.34;5021410;28;20039;-83
2022/08/22 02:30:24;;;;;;;10.68;6.00;;;;;;;18.67;55.20;99737.88;4945521;28;20097;-82
2022/08/22 02:32:58;;;;;;;9.40;5.70;;;;;;;18.47;56.12;99744.88;4988319;28;20050;-90
2022/08/22 02:35:30;;;;;;;11.95;6.65;;;;;;;18.59;55.79;99738.00;4953856;28;20069;-90
2022/08/22 02:38:14;;;;;;;14.60;6.60;;;;;;;18.57;55.80;99748.09;5008929;28;20116;-90
2022/08/22 02:41:02;;;;;;;9.57;5.43;;;;;;;18.30;56.71;99739.72;4967615;28;20119;-89
2022/08/22 02:43:38;;;;;;;12.57;6.57;;;;;;;18.55;56.08;99736.72;4914341;28;20705;-91
2022/08/22 02:46:40;;;;;;;12.27;6.53;;;;;;;18.34;56.50;99741.03;5009309;28;20468;-89
2022/08/22 02:50:02;;;;;;;10.77;6.07;;;;;;;18.14;56.78;99742.63;4933630;28;20045;-90
2022/08/22 02:52:50;;;;;;;10.90;6.50;;;;;;;18.20;56.81;99733.81;4869869;29;20372;-90
2022/08/22 02:55:30;;;;;;;9.18;6.07;;;;;;;18.22;56.41;99731.78;4888910;29;20047;-83
2022/08/22 02:58:41;;;;;;;12.40;5.82;;;;;;;18.11;56.72;99732.25;4968803;28;20042;-82
2022/08/22 03:01:26;;;;;;;11.45;6.20;;;;;;;18.16;56.99;99729.81;4894910;28;20621;-89
2022/08/22 03:04:44;;;;;;;12.13;6.63;;;;;;;18.21;57.34;99728.25;4891182;29;20496;-90
2022/08/22 03:07:17;;;;;;;10.25;5.63;;;;;;;18.38;56.17;99728.88;4949925;28;20049;-90
2022/08/22 03:09:46;;;;;;;12.18;6.45;;;;;;;18.38;56.04;99731.56;5004959;28;20092;-90
2022/08/22 03:12:28;;;;;;;13.60;6.50;;;;;;;18.24;57.63;99735.09;5005105;28;20533;-90
2022/08/22 03:15:48;;;;;;;15.17;5.93;;;;;;;18.24;57.93;99740.47;4956234;28;20052;-90
2022/08/22 03:18:18;;;;;;;11.35;6.18;;;;;;;18.46;56.80;99732.47;4880852;28;20101;-90
2022/08/22 03:21:20;;;;;;;12.13;7.60;;;;;;;18.08;57.15;99733.44;4997009;28;20123;-83
2022/08/22 03:23:51;;;;;;;10.95;6.75;;;;;;;18.47;55.89;99737.66;4938378;28;20051;-83
2022/08/22 03:26:43;;;;;;;10.30;6.13;;;;;;;18.23;56.81;99734.25;4998549;28;20049;-83
2022/08/22 03:29:26;;;;;;;8.93;5.85;;;;;;;18.13;56.86;99732.91;4978544;28;20060;-83
2022/08/22 03:32:22;;;;;;;8.18;6.07;;;;;;;18.09;56.82;99736.97;4951938;28;20042;-89
2022/08/22 03:35:00;;;;;;;9.30;5.68;;;;;;;18.14;56.94;99738.09;4929977;28;20047;-82
2022/08/22 03:37:30;;;;;;;11.00;5.90;;;;;;;18.24;56.68;99743.16;4999187;28;20657;-83
2022/08/22 03:40:02;;;;;;;12.52;6.25;;;;;;;18.17;56.40;99736.88;5030696;28;20050;-83
2022/08/22 03:42:38;;;;;;;7.82;5.57;;;;;;;18.24;56.28;99737.78;4982876;28;20049;-83
2022/08/22 03:45:21;;;;;;;8.05;6.05;;;;;;;18.19;56.46;99740.19;4988520;28;20525;-83
2022/08/22 03:48:01;;;;;;;12.85;6.63;;;;;;;17.93;57.29;99741.50;4986090;28;20489;-83
2022/08/22 03:50:53;;;;;;;9.68;6.15;;;;;;;17.89;57.34;99740.25;4981444;28;20053;-88
2022/08/22 03:53:43;;;;;;;11.15;5.78;;;;;;;17.85;57.27;99743.47;4930694;28;20050;-87
2022/08/22 03:56:33;;;;;;;11.95;5.97;;;;;;;17.78;57.92;99743.34;4971435;28;20046;-86
2022/08/22 03:59:21;;;;;;;9.73;6.22;;;;;;;17.75;57.74;99746.41;4939034;28;20505;-86
2022/08/22 04:02:06;;;;;;;7.43;5.90;;;;;;;17.74;57.55;99752.81;4922577;28;20120;-86
2022/08/22 04:05:19;;;;;;;11.32;6.05;;;;;;;17.85;57.59;99754.22;4943751;28;20053;-83
2022/08/22 04:08:10;;;;;;;11.13;6.32;;;;;;;17.89;57.63;99751.00;4979197;28;20037;-87
2022/08/22 04:10:58;;;;;;;9.85;5.78;;;;;;;17.77;57.77;99755.94;4959891;28;20509;-89
2022/08/22 04:13:53;;;;;;;9.45;5.95;;;;;;;17.86;57.53;99755.88;4963442;28;20069;-84
2022/08/22 04:16:45;;;;;;;12.60;6.57;;;;;;;17.78;57.62;99763.00;4968199;28;20053;-85
2022/08/22 04:19:20;;;;;;;8.82;5.80;;;;;;;17.93;57.09;99765.69;4969183;28;20045;-85
2022/08/22 04:22:07;;;;;;;9.18;6.22;;;;;;;18.02;57.05;99762.94;4988207;28;20397;-85
2022/08/22 04:24:50;;;;;;;10.27;6.47;;;;;;;17.85;57.16;99756.91;4970973;28;20038;-85
2022/08/22 04:27:39;;;;;;;10.15;6.13;;;;;;;17.71;57.94;99764.75;4931599;28;20045;-86
2022/08/22 04:30:28;;;;;;;8.32;5.78;;;;;;;17.70;58.18;99757.69;4945112;28;20054;-86
2022/08/22 04:33:10;;;;;;;10.48;6.07;;;;;;;17.91;57.42;99759.69;4930845;28;20097;-84
2022/08/22 04:36:01;;;;;;;9.52;6.00;;;;;;;17.79;57.71;99755.78;4961336;28;20054;-83
2022/08/22 04:38:47;;;;;;;10.60;6.30;;;;;;;17.64;58.00;99768.34;4933537;28;20485;-86
2022/08/22 04:41:19;;;;;;;12.82;6.80;;;;;;;17.77;57.65;99769.38;4983855;28;20053;-83
2022/08/22 04:44:03;;;;;;;10.05;6.40;;;;;;;17.74;57.87;99767.06;5008188;28;20401;-86
2022/08/22 04:46:53;;;;;;;11.43;6.22;;;;;;;17.56;58.58;99774.63;4965159;28;20111;-86
2022/08/22 04:49:39;;;;;;;12.02;6.80;;;;;;;17.63;58.07;99772.88;4954844;28;20054;-87
2022/08/22 04:52:33;;;;;;;9.18;6.63;;;;;;;17.72;57.94;99774.47;5010137;28;20556;-90
2022/08/22 04:58:50;;;;;;;8.82;6.10;;;;;;;17.76;58.06;99774.94;4940832;28;20046;-83
2022/08/22 05:01:21;;;;;;;9.57;6.30;;;;;;;17.96;57.22;99780.59;4968874;28;20054;-83
2022/08/22 05:04:01;;;;;;;9.57;6.18;;;;;;;17.83;57.64;99780.44;4987436;28;20124;-84
2022/08/22 05:06:30;;;;;;;11.98;7.03;;;;;;;18.00;57.28;99781.91;5003683;28;20045;-83
2022/08/22 05:09:04;;;;;;;8.43;6.20;;;;;;;17.96;57.65;99785.97;5033604;28;20044;-86
2022/08/22 05:11:32;;;;;;;11.50;6.50;;;;;;;18.05;57.37;99784.06;4992193;28;20042;-93
2022/08/22 05:18:35;;;;;;;12.95;7.63;;;;;;;18.07;57.67;99782.03;4969314;28;20030;-91
2022/08/22 05:21:05;;;;;;;11.88;7.28;;;;;;;18.14;57.04;99788.28;4952918;28;20053;-83
2022/08/22 05:23:43;;;;;;;10.20;7.10;;;;;;;18.13;57.75;99794.72;4971191;28;20485;-83
2022/08/22 05:26:11;;;;;;;9.57;6.97;;;;;;;18.32;56.72;99788.78;4961121;28;20054;-89
2022/08/22 05:28:46;;;;;;;9.73;7.20;;;;;;;18.34;57.14;99784.06;4980897;28;20062;-91
2022/08/22 05:31:29;;;;;;;11.57;7.35;;;;;;;18.35;56.91;99796.47;4974133;28;20041;-85
2022/08/22 05:34:12;;;;;;;12.40;8.25;;;;;;;18.29;56.33;99788.28;4995485;28;20050;-84
2022/08/22 05:36:45;;;;;;;8.85;7.25;;;;;;;18.50;56.13;99785.69;4936909;28;20065;-90
2022/08/22 05:39:18;;;;;;;12.85;7.15;;;;;;;18.44;55.97;99792.66;4985160;28;20053;-85
2022/08/22 05:41:45;;;;;;;11.85;7.40;;;;;;;18.59;55.91;99795.28;4983309;28;20042;-85
2022/08/22 05:44:32;;;;;;;9.55;6.25;;;;;;;18.30;56.76;99789.97;4984921;28;20046;-91
2022/08/22 05:47:01;;;;;;;7.55;6.50;;;;;;;18.60;56.28;99796.97;4931837;28;20042;-90
2022/08/22 05:49:37;;;;;;;10.60;6.63;;;;;;;18.50;56.57;99799.13;4979691;28;20413;-91
2022/08/22 05:52:07;;;;;;;11.05;6.78;;;;;;;18.65;56.70;99788.34;4963149;28;20411;-85
2022/08/22 05:54:48;;;;;;;10.57;6.75;;;;;;;18.62;57.15;99791.38;4988817;28;20133;-90
2022/08/22 05:57:29;;;;;;;10.57;6.72;;;;;;;18.60;57.41;99791.59;4973310;28;20045;-90
2022/08/22 06:00:10;;;;;;;10.07;6.80;;;;;;;18.54;57.53;99781.56;4960298;28;20592;-92
2022/08/22 06:02:47;;;;;;;15.43;7.45;;;;;;;18.58;57.60;99779.38;4971486;28;20061;-90
2022/08/22 06:05:21;;;;;;;12.15;6.57;;;;;;;18.77;57.12;99784.16;4984453;28;20046;-90
2022/08/22 06:07:49;;;;;;;11.70;6.70;;;;;;;18.87;56.77;99784.66;4908776;28;20186;-92
2022/08/22 06:10:23;;;;;;;10.68;6.07;;;;;;;18.93;56.97;99780.41;4956118;28;20061;-89
2022/08/22 06:13:11;;;;;;;10.77;6.57;;;;;;;19.01;56.60;99782.13;4952495;28;20399;-90
2022/08/22 06:20:07;;;;;;;9.32;6.25;;;;;;;19.03;56.65;99782.75;4956373;28;20038;-85
2022/08/22 06:22:45;;;;;;;10.43;6.80;;;;;;;18.99;57.26;99787.69;4985316;28;20062;-90
2022/08/22 06:25:17;;;;;;;9.18;6.00;;;;;;;19.35;56.48;99781.41;4998330;28;20046;-90
2022/08/22 06:27:46;;;;;;;11.23;7.13;;;;;;;19.33;56.90;99783.44;4952479;28;20049;-90
2022/08/22 06:30:15;;;;;;;12.57;7.13;;;;;;;19.43;56.85;99783.94;4997796;28;20053;-86
2022/08/22 06:32:47;;;;;;;14.77;7.68;;;;;;;19.58;56.76;99777.66;4971176;28;20074;-85
2022/08/22 06:36:29;;;;;;;11.38;7.38;;;;;;;19.65;55.86;99779.38;4934492;28;20047;-85
2022/08/22 06:38:18;;;;;;;11.32;7.47;;;;;;;19.72;55.25;99776.78;4928439;28;20514;-91
2022/08/22 06:40:45;;;;;;;13.60;7.43;;;;;;;19.77;54.96;99773.47;4931035;28;20079;-89
2022/08/22 06:43:12;;;;;;;13.32;6.80;;;;;;;19.86;54.84;99774.97;4913248;28;20060;-90
2022/08/22 06:45:39;;;;;;;14.18;7.68;;;;;;;19.86;54.52;99785.75;4924537;28;20405;-91
2022/08/22 06:53:04;;;;;;;11.40;7.28;;;;;;;19.86;54.79;99791.97;4895614;28;20118;-86
2022/08/22 06:55:31;;;;;;;14.70;7.75;;;;;;;20.09;54.46;99793.56;4896490;28;20058;-84
2022/08/22 06:58:02;;;;;;;9.63;7.25;;;;;;;20.09;54.48;99796.25;4954740;28;20045;-84
2022/08/22 07:00:34;;;;;;;15.73;7.13;;;;;;;20.12;54.46;99793.16;4924215;28;20047;-86
2022/08/22 07:03:19;;;;;;;11.30;7.57;;;;;;;20.10;54.53;99797.94;4940045;28;20133;-85
2022/08/22 07:05:46;;;;;;;10.30;7.15;;;;;;;20.29;54.24;99799.06;4934648;28;20493;-87
2022/08/22 07:08:18;;;;;;;15.23;7.57;;;;;;;20.25;54.06;99792.41;4969557;28;20046;-84
2022/08/22 07:10:58;;;;;;;12.73;7.40;;;;;;;20.28;54.20;99798.25;4943125;28;20042;-85
2022/08/22 07:13:27;;;;;;;9.98;6.20;;;;;;;20.43;54.02;99792.72;4985344;28;20034;-91
2022/08/22 07:15:56;;;;;;;16.55;6.90;;;;;;;20.47;54.22;99791.25;4952614;28;20069;-90
2022/08/22 07:18:25;;;;;;;11.68;7.03;;;;;;;20.56;53.55;99797.38;4983311;28;20039;-85
2022/08/22 07:20:58;;;;;;;14.85;7.72;;;;;;;20.59;53.98;99794.25;5001051;28;20038;-85
2022/08/22 07:23:39;;;;;;;10.77;7.78;;;;;;;20.55;53.81;99804.59;4979615;28;20401;-84
2022/08/22 07:26:32;;;;;;;10.45;7.35;;;;;;;20.54;54.22;99799.41;4964435;28;20057;-84
2022/08/22 07:29:02;;;;;;;13.20;7.28;;;;;;;20.69;53.84;99794.72;4989739;28;20129;-85
2022/08/22 07:31:41;;;;;;;10.95;6.40;;;;;;;20.73;53.89;99798.66;5000341;28;20523;-85
2022/08/22 07:34:21;;;;;;;13.07;8.25;;;;;;;20.77;53.43;99793.69;4947242;28;20061;-85
2022/08/22 07:36:59;;;;;;;11.02;7.75;;;;;;;20.84;53.37;99802.66;4984047;28;20045;-85
2022/08/22 07:39:38;;;;;;;10.88;7.75;;;;;;;20.76;53.65;99792.88;4984579;28;20041;-89
2022/08/22 07:42:23;;;;;;;8.45;6.88;;;;;;;20.80;53.14;99801.38;4985130;28;20061;-90
2022/08/22 07:45:06;;;;;;;11.20;7.35;;;;;;;20.91;52.68;99798.06;4939152;28;20057;-86
2022/08/22 07:47:44;;;;;;;10.73;6.68;;;;;;;20.90;52.54;99795.59;5004862;28;20058;-85
2022/08/22 07:50:23;;;;;;;14.05;7.50;;;;;;;20.94;52.32;99799.53;4960755;28;20058;-84
2022/08/22 07:52:51;;;;;;;9.20;6.70;;;;;;;21.03;52.61;99792.91;4959576;28;20041;-85
2022/08/22 07:55:21;;;;;;;16.45;7.70;;;;;;;21.06;52.56;99792.50;5000035;28;20057;-85
2022/08/22 07:57:54;;;;;;;10.02;7.07;;;;;;;21.03;52.34;99793.75;4972315;28;20057;-85
2022/08/22 08:00:23;;;;;;;9.85;6.53;;;;;;;21.16;52.44;99800.22;4970513;28;20046;-91
2022/08/22 08:02:57;;;;;;;11.77;7.55;;;;;;;21.17;52.31;99801.91;4968825;28;20050;-91
2022/08/22 08:05:27;;;;;;;14.70;7.68;;;;;;;21.21;52.13;99809.34;4949445;28;20062;-90
2022/08/22 08:07:55;;;;;;;9.88;7.05;;;;;;;21.29;52.19;99804.78;5002530;28;20069;-88
2022/08/22 08:10:26;;;;;;;15.95;7.85;;;;;;;21.29;51.68;99802.91;5018918;28;20034;-91
2022/08/22 08:12:58;;;;;;;14.07;7.35;;;;;;;21.33;52.25;99809.59;4961884;28;20047;-91
2022/08/22 08:15:30;;;;;;;10.98;7.32;;;;;;;21.42;52.14;99802.97;4977289;28;20053;-91
2022/08/22 08:18:00;;;;;;;9.63;7.22;;;;;;;;;;4965935;28;20050;-88
2022/08/22 08:20:28;;;;;;;15.85;7.45;;;;;;;21.53;51.70;99814.22;4984032;28;20043;-90
2022/08/22 08:22:56;;;;;;;7.60;6.05;;;;;;;21.57;51.87;99800.06;4965517;28;20415;-89
2022/08/22 08:25:26;;;;;;;8.63;5.75;;;;;;;21.62;52.00;99800.25;4977873;28;20058;-90
2022/08/22 08:30:55;;;;;;;8.52;6.63;;;;;;;21.69;51.74;99794.84;4952224;28;20058;-85
2022/08/22 08:33:25;;;;;;;8.77;6.20;;;;;;;21.78;51.89;99792.75;4977843;28;21023;-86
2022/08/22 08:36:15;;;;;;;11.05;6.90;;;;;;;21.74;51.73;99796.94;4999164;28;20042;-86
2022/08/22 08:39:15;;;;;;;9.80;7.18;;;;;;;21.81;51.58;99803.19;4918638;28;20042;-88
2022/08/22 08:43:26;;;;;;;9.55;6.57;;;;;;;21.79;51.45;99803.38;4926657;28;20049;-88
2022/08/22 08:54:42;;;;;;;10.98;7.85;;;;;;;21.99;50.97;99791.72;4935008;28;20031;-88
2022/08/22 08:57:40;;;;;;;10.40;6.22;;;;;;;21.96;51.31;99784.84;4964550;28;20110;-89
2022/08/22 09:00:49;;;;;;;9.52;6.47;;;;;;;22.02;51.75;99781.28;4923974;28;20516;-84
2022/08/22 09:03:50;;;;;;;9.63;6.60;;;;;;;22.11;51.49;99779.19;4980276;28;20038;-84
2022/08/22 09:06:38;;;;;;;9.75;6.85;;;;;;;22.22;51.23;99778.56;4976361;28;20047;-84
2022/08/22 09:09:45;;;;;;;8.55;6.35;;;;;;;22.20;51.34;99779.81;4936281;28;20061;-89
2022/08/22 09:12:24;;;;;;;11.88;7.50;;;;;;;22.31;51.37;99776.44;4948258;28;20182;-89
2022/08/22 09:15:18;;;;;;;11.93;7.35;;;;;;;22.25;51.42;99772.72;4996896;28;20288;-88
2022/08/22 09:18:16;;;;;;;7.65;6.18;;;;;;;22.32;51.41;99780.81;4904629;28;20564;-88
2022/08/22 09:21:23;;;;;;;10.98;7.28;;;;;;;22.35;51.07;99774.97;4934494;28;20054;-87
2022/08/22 09:24:15;;;;;;;7.57;6.05;;;;;;;22.36;51.30;99781.22;4910052;28;20049;-84
2022/08/22 09:26:53;;;;;;;10.82;7.07;;;;;;;22.42;51.35;99775.78;5000283;28;20049;-83
2022/08/22 09:29:43;;;;;;;10.05;7.38;;;;;;;22.46;51.19;99784.28;4995505;28;20046;-86
2022/08/22 09:32:42;;;;;;;9.35;6.55;;;;;;;22.47;51.17;99780.56;4931775;28;20384;-89
2022/08/22 09:35:18;;;;;;;11.02;7.13;;;;;;;22.56;50.95;99781.13;4954197;28;20048;-85
2022/08/22 09:38:07;;;;;;;9.05;6.50;;;;;;;22.52;51.28;99780.75;4970762;28;20072;-85
2022/08/22 09:40:53;;;;;;;10.98;7.97;;;;;;;22.54;51.41;99774.06;4977954;28;20050;-85
2022/08/22 09:43:35;;;;;;;13.50;7.15;;;;;;;22.62;51.39;99783.81;4968874;28;20387;-85
2022/08/22 09:46:23;;;;;;;9.95;6.80;;;;;;;22.69;51.20;99773.75;4940037;28;20042;-85
2022/08/22 09:49:12;;;;;;;10.00;6.85;;;;;;;22.70;50.50;99783.56;4978700;28;20077;-86
2022/08/22 09:52:09;;;;;;;7.35;6.18;;;;;;;22.72;50.58;99781.47;4966125;28;20066;-85
2022/08/22 09:55:29;;;;;;;9.25;6.57;;;;;;;22.72;50.23;99764.41;4934209;28;20042;-88
2022/08/22 09:58:24;;;;;;;12.07;6.68;;;;;;;22.76;49.80;99765.63;4949790;28;20046;-83
2022/08/22 10:01:23;;;;;;;9.37;7.07;;;;;;;22.79;48.61;99770.59;4968507;28;20501;-83
2022/08/22 10:04:05;;;;;;;14.63;6.72;;;;;;;22.83;48.84;99765.59;4952373;28;20043;-85
2022/08/22 10:07:02;;;;;;;7.97;6.43;;;;;;;22.85;49.30;99761.63;4933019;28;20681;-85
2022/08/22 10:09:56;;;;;;;8.20;6.35;;;;;;;22.94;48.92;99763.00;4912291;28;20053;-85
2022/08/22 10:12:50;;;;;;;8.50;5.75;;;;;;;23.01;49.13;99757.59;4966009;28;20042;-85
2022/08/22 10:15:34;;;;;;;10.73;6.20;;;;;;;23.01;48.69;99752.16;4984823;28;20136;-83
2022/08/22 10:18:13;;;;;;;7.38;6.30;;;;;;;23.08;48.60;99758.38;4952161;28;20080;-86
2022/08/22 10:21:19;;;;;;;8.90;6.13;;;;;;;23.08;47.28;99749.44;4968384;28;20532;-88
2022/08/22 10:24:14;;;;;;;8.18;6.32;;;;;;;23.16;47.89;99743.72;4934530;28;20173;-89
2022/08/22 10:27:01;;;;;;;8.70;6.30;;;;;;;23.25;47.97;99736.97;4890251;28;20460;-88
2022/08/22 10:29:47;;;;;;;9.20;7.00;;;;;;;23.31;48.15;99735.28;4995167;28;20359;-86
2022/08/22 10:32:13;;;;;;;11.13;7.32;;;;;;;23.37;46.98;99728.97;4949485;28;20046;-85
2022/08/22 10:34:43;;;;;;;9.35;6.80;;;;;;;23.40;45.83;99723.09;4973904;28;20057;-90
2022/08/22 10:37:36;;;;;;;18.15;7.00;;;;;;;23.46;45.86;99718.66;4987897;28;20046;-90
2022/08/22 10:40:13;;;;;;;13.43;6.43;;;;;;;23.43;46.46;99714.50;4933199;28;20137;-85
2022/08/22 10:43:22;;;;;;;7.90;6.07;;;;;;;23.44;46.46;99718.06;4963161;28;20047;-86
2022/08/22 10:46:10;;;;;;;9.63;6.32;;;;;;;23.33;46.04;99722.31;4869713;28;20046;-89
2022/08/22 10:48:45;;;;;;;9.73;5.88;;;;;;;23.34;45.94;99715.88;4915905;28;20049;-89
2022/08/22 10:51:27;;;;;;;11.80;6.10;;;;;;;23.31;44.78;99716.31;4987211;28;20414;-89
2022/08/22 10:54:31;;;;;;;9.23;5.90;;;;;;;23.29;44.15;99708.41;4967491;28;20042;-88
2022/08/22 10:57:21;;;;;;;8.40;6.07;;;;;;;23.28;45.41;99706.75;4928048;28;20049;-88
2022/08/22 10:59:51;;;;;;;10.35;6.30;;;;;;;23.32;45.52;99697.09;4969675;28;20504;-86
2022/08/22 11:02:45;;;;;;;8.07;5.72;;;;;;;23.26;45.41;99703.44;4969079;28;20050;-86
2022/08/22 11:05:29;;;;;;;11.57;6.15;;;;;;;23.30;45.61;99704.63;4949647;28;20510;-86
2022/08/22 11:08:03;;;;;;;;;;;;;;;23.19;45.67;99706.19;4967956;28;20064;-92
2022/08/22 11:11:06;;;;;;;9.48;5.10;;;;;;;23.29;45.19;99702.16;4983798;28;19930;-91
2022/08/22 11:17:32;;;;;;;9.70;5.57;;;;;;;23.56;44.29;99694.59;4906815;28;20490;-90
2022/08/22 11:20:18;;;;;;;9.98;5.93;;;;;;;23.64;43.60;99690.78;4976545;28;20114;-90
2022/08/22 11:23:08;;;;;;;9.38;5.32;;;;;;;23.72;42.98;99688.63;4973240;28;20101;-90
2022/08/22 11:25:51;;;;;;;13.57;6.30;;;;;;;23.74;42.47;99686.53;4924335;28;20394;-86
2022/08/22 11:28:24;;;;;;;8.65;4.97;;;;;;;23.82;42.60;99678.06;4978127;28;20125;-85
2022/08/22 11:31:21;;;;;;;7.57;5.43;;;;;;;23.85;42.21;99686.81;4997397;28;20099;-86
2022/08/22 11:34:07;;;;;;;11.63;5.30;;;;;;;23.82;40.91;99677.25;4962423;28;20034;-84
2022/08/22 11:36:59;;;;;;;8.85;5.30;;;;;;;23.95;40.77;99678.97;4979241;28;20051;-85
2022/08/22 11:39:55;;;;;;;9.57;5.30;;;;;;;23.91;40.76;99677.75;4943515;28;20675;-85
2022/08/22 11:43:06;;;;;;;9.88;6.15;;;;;;;23.92;39.18;99674.84;4931981;28;20123;-84
2022/08/22 11:45:49;;;;;;;8.55;4.90;;;;;;;24.04;40.43;99666.75;4917035;28;20042;-85
2022/08/22 11:48:16;;;;;;;;;;;;;;;23.93;41.46;99657.50;4938224;28;20046;-90
2022/08/22 11:50:54;;;;;;;9.48;5.25;;;;;;;24.09;40.20;99669.59;4967649;28;20373;-90
2022/08/22 11:53:32;;;;;;;8.48;5.00;;;;;;;24.15;40.72;99660.56;4955855;28;20053;-90
2022/08/22 11:56:23;;;;;;;12.07;5.57;;;;;;;24.16;37.99;99666.81;4974311;28;20112;-88
2022/08/22 11:59:00;;;;;;;12.48;6.07;;;;;;;24.21;39.50;99667.78;4965414;28;20053;-91
2022/08/22 12:01:32;;;;;;;10.73;5.65;;;;;;;24.25;40.16;99663.56;4937226;28;20059;-85
2022/08/22 12:04:09;;;;;;;12.77;5.53;;;;;;;24.27;39.37;99658.75;4956508;28;20063;-88
2022/08/22 12:06:59;;;;;;;9.48;5.68;;;;;;;24.30;39.11;99659.31;4935469;28;20133;-89
2022/08/22 12:09:31;;;;;;;9.20;5.03;;;;;;;24.35;39.74;99652.16;4914708;28;20455;-90
2022/08/22 12:12:19;;;;;;;12.85;5.45;;;;;;;24.38;39.88;99650.88;4941406;28;20058;-88
2022/08/22 12:15:14;;;;;;;9.30;5.97;;;;;;;24.38;39.20;99654.41;4939281;28;20049;-85
2022/08/22 12:18:03;;;;;;;8.60;5.43;;;;;;;24.43;39.37;99656.44;4892564;28;20047;-86
2022/08/22 12:20:54;;;;;;;12.35;6.13;;;;;;;24.39;39.53;99641.66;4881196;28;20043;-85
2022/08/22 12:23:54;;;;;;;7.20;5.10;;;;;;;24.38;39.87;99643.56;4943752;28;20043;-86
2022/08/22 12:26:33;;;;;;;10.40;5.70;;;;;;;24.51;39.33;99647.16;4920339;28;20406;-86
2022/08/22 12:29:36;;;;;;;10.80;5.55;;;;;;;24.46;39.12;99650.56;4929162;28;20061;-86
2022/08/22 12:32:32;;;;;;;9.13;5.82;;;;;;;24.50;39.39;99649.06;4922046;28;20050;-84
2022/08/22 12:35:38;;;;;;;11.55;6.00;;;;;;;24.47;39.54;99642.22;4959906;28;20054;-84
2022/08/22 12:38:39;;;;;;;11.07;5.25;;;;;;;24.50;39.00;99631.94;4878571;28;20042;-84
2022/08/22 12:41:10;;;;;;;10.02;5.13;;;;;;;24.60;38.60;99634.91;4930404;28;20116;-85
2022/08/22 12:43:46;;;;;;;11.82;5.75;;;;;;;24.63;37.36;99626.31;4963714;28;20095;-85
2022/08/22 12:46:36;;;;;;;9.95;5.85;;;;;;;24.63;38.24;99631.75;4968668;28;20054;-85
2022/08/22 12:49:12;;;;;;;10.23;6.00;;;;;;;24.79;37.59;99616.66;4982496;28;20169;-87
2022/08/22 12:52:11;;;;;;;10.55;5.97;;;;;;;24.82;37.12;99619.72;4977574;28;20058;-87
2022/08/22 12:55:04;;;;;;;14.23;5.32;;;;;;;24.85;37.75;99621.97;4961297;28;20524;-88
2022/08/22 12:57:39;;;;;;;11.40;5.45;;;;;;;24.90;36.68;99630.22;4964191;28;20042;-87
2022/08/22 13:00:24;;;;;;;8.82;5.20;;;;;;;24.86;36.39;99615.47;4993607;28;20116;-89
2022/08/22 13:02:58;;;;;;;12.15;5.53;;;;;;;25.00;37.29;99618.78;4954971;28;20700;-89
2022/08/22 13:05:26;;;;;;;7.25;4.97;;;;;;;25.00;37.07;99617.97;4963407;28;20043;-88
2022/08/22 13:08:06;;;;;;;10.55;5.57;;;;;;;24.94;36.29;99613.50;4954390;28;20474;-88
2022/08/22 13:10:47;;;;;;;8.20;5.28;;;;;;;24.91;36.71;99614.78;4962901;28;20451;-89
2022/08/22 13:13:26;;;;;;;10.10;5.32;;;;;;;24.88;36.86;99607.94;4963611;28;20050;-92
2022/08/22 13:16:04;;;;;;;12.53;5.43;;;;;;;24.88;37.05;99613.38;4995187;28;20050;-87
2022/08/22 13:18:36;;;;;;;8.98;5.30;;;;;;;24.85;36.81;99608.38;4988889;28;20428;-86